Time;durP1;ratioP1;P1;durP2;ratioP2;P2;SDS_P1;SDS_P2;PMS_P1;PMS_P2;Temp;Humidity;BMP_temperature;BMP_pressure;BME280_temperature;BME280_humidity;BME280_pressure;Samples;Min_cycle;Max_cycle;Signal;HPM_P1;HPM_P2
2021/03/10 00:01:07;;;;;;;27.88;8.43;;;;;;;;;;5102399;28;20028;-82
2021/03/10 00:03:33;;;;;;;24.48;9.60;;;;;;;;;;5117611;28;20059;-80
2021/03/10 00:05:59;;;;;;;19.38;8.95;;;;;;;;;;5096136;28;20020;-81
2021/03/10 00:08:26;;;;;;;25.98;9.02;;;;;;;;;;5094316;28;20028;-81
2021/03/10 00:10:52;;;;;;;20.90;8.52;;;;;;;;;;5095529;28;20476;-80
2021/03/10 00:13:18;;;;;;;31.55;8.68;;;;;;;;;;5095838;28;20040;-80
2021/03/10 00:15:45;;;;;;;26.55;9.40;;;;;;;;;;5094236;28;20070;-80
2021/03/10 00:18:11;;;;;;;27.80;9.50;;;;;;;;;;5095923;28;20028;-81
2021/03/10 00:20:37;;;;;;;24.98;8.90;;;;;;;;;;5095350;28;20563;-80
2021/03/10 00:23:03;;;;;;;28.10;10.52;;;;;;;;;;5094079;28;20024;-79
2021/03/10 00:25:30;;;;;;;28.58;9.63;;;;;;;;;;5094022;28;20430;-81
2021/03/10 00:27:56;;;;;;;23.50;9.20;;;;;;;;;;5095162;28;20024;-80
2021/03/10 00:30:22;;;;;;;24.70;9.30;;;;;;;;;;5093855;28;20016;-81
2021/03/10 00:32:49;;;;;;;24.58;9.88;;;;;;;;;;5094966;28;20024;-82
2021/03/10 00:35:15;;;;;;;27.38;9.40;;;;;;;;;;5093783;28;20024;-80
2021/03/10 00:37:41;;;;;;;26.92;10.50;;;;;;;;;;5093635;28;20026;-78
2021/03/10 00:40:07;;;;;;;27.85;9.35;;;;;;;;;;5093780;28;20110;-80
2021/03/10 00:42:33;;;;;;;29.30;10.10;;;;;;;;;;5093390;28;20514;-79
2021/03/10 00:45:00;;;;;;;32.65;9.77;;;;;;;;;;5093566;28;20028;-81
2021/03/10 00:47:26;;;;;;;31.25;10.95;;;;;;;;;;5095381;28;20055;-80
2021/03/10 00:49:52;;;;;;;28.08;10.98;;;;;;;;;;5094523;28;20027;-81
2021/03/10 00:52:19;;;;;;;32.58;10.90;;;;;;;;;;5094709;28;20027;-80
2021/03/10 00:54:45;;;;;;;36.90;10.55;;;;;;;;;;5093451;28;20036;-82
2021/03/10 00:57:11;;;;;;;31.70;10.57;;;;;;;;;;5094553;28;20070;-80
2021/03/10 00:59:38;;;;;;;23.65;11.00;;;;;;;;;;5093247;28;20027;-80
2021/03/10 01:02:04;;;;;;;25.58;10.90;;;;;;;;;;5095035;28;20029;-78
2021/03/10 01:04:31;;;;;;;31.83;11.80;;;;;;;;;;5094432;28;20465;-81
2021/03/10 01:06:57;;;;;;;30.75;9.90;;;;;;;;;;5094513;28;20108;-81
2021/03/10 01:09:24;;;;;;;39.35;12.43;;;;;;;;;;5093091;28;20039;-81
2021/03/10 01:11:50;;;;;;;31.90;11.93;;;;;;;;;;5094186;28;20020;-81
2021/03/10 01:14:17;;;;;;;31.75;10.95;;;;;;;;;;5092794;28;20040;-80
2021/03/10 01:16:43;;;;;;;35.60;10.95;;;;;;;;;;5094770;28;20461;-80
2021/03/10 01:19:10;;;;;;;31.98;9.77;;;;;;;;;;5094156;28;20052;-80
2021/03/10 01:21:36;;;;;;;23.02;9.45;;;;;;;;;;5092843;28;20062;-81
2021/03/10 01:24:02;;;;;;;31.92;11.40;;;;;;;;;;5092691;28;20024;-80
2021/03/10 01:26:29;;;;;;;31.83;11.40;;;;;;;;;;5094011;28;20028;-80
2021/03/10 01:28:55;;;;;;;26.13;11.02;;;;;;;;;;5093984;28;20058;-80
2021/03/10 01:31:22;;;;;;;25.15;9.88;;;;;;;;;;5092793;28;20437;-81
2021/03/10 01:33:48;;;;;;;23.00;9.52;;;;;;;;;;5094278;28;20388;-81
2021/03/10 01:36:15;;;;;;;27.75;9.32;;;;;;;;;;5092904;28;20024;-81
2021/03/10 01:38:41;;;;;;;23.42;10.07;;;;;;;;;;5093337;28;20032;-79
2021/03/10 01:41:08;;;;;;;22.95;9.45;;;;;;;;;;5094348;28;20395;-79
2021/03/10 01:43:34;;;;;;;20.45;9.10;;;;;;;;;;5092964;28;20115;-80
2021/03/10 01:46:00;;;;;;;20.10;8.38;;;;;;;;;;5094439;28;20035;-80
2021/03/10 01:48:27;;;;;;;24.88;8.65;;;;;;;;;;5093369;28;20028;-79
2021/03/10 01:50:54;;;;;;;25.15;9.13;;;;;;;;;;5094706;28;20038;-80
2021/03/10 01:53:20;;;;;;;22.52;9.77;;;;;;;;;;5096354;28;20036;-80
2021/03/10 01:55:47;;;;;;;27.35;8.90;;;;;;;;;;5115651;28;20099;-79
2021/03/10 01:58:14;;;;;;;24.77;9.25;;;;;;;;;;5095687;28;20024;-79
2021/03/10 02:00:40;;;;;;;20.73;8.43;;;;;;;;;;5094178;28;20024;-79
2021/03/10 02:03:06;;;;;;;24.83;9.10;;;;;;;;;;5091590;28;20477;-80
2021/03/10 02:05:33;;;;;;;28.02;9.13;;;;;;;;;;5092230;28;20389;-79
2021/03/10 02:07:59;;;;;;;28.27;9.48;;;;;;;;;;5092205;28;20480;-80
2021/03/10 02:10:25;;;;;;;27.77;11.43;;;;;;;;;;5093455;28;20052;-79
2021/03/10 02:12:51;;;;;;;22.80;8.60;;;;;;;;;;5092120;28;20036;-80
2021/03/10 02:15:26;;;;;;;24.05;8.25;;;;;;;;;;5093424;28;20063;-80
2021/03/10 02:17:55;;;;;;;28.60;9.43;;;;;;;;;;5092153;28;20025;-79
2021/03/10 02:20:24;;;;;;;21.55;8.30;;;;;;;;;;5092054;28;20115;-80
2021/03/10 02:22:53;;;;;;;18.15;8.50;;;;;;;;;;5092192;28;20028;-80
2021/03/10 02:25:37;;;;;;;19.13;8.48;;;;;;;;;;5091955;28;20024;-78
2021/03/10 02:28:03;;;;;;;24.05;7.53;;;;;;;;;;5092012;28;20070;-78
2021/03/10 02:30:53;;;;;;;29.55;9.07;;;;;;;;;;5093185;28;20028;-80
2021/03/10 02:33:20;;;;;;;25.45;8.88;;;;;;;;;;5081333;28;20060;-80
2021/03/10 02:35:51;;;;;;;16.95;7.80;;;;;;;;;;5093143;28;20020;-80
2021/03/10 02:38:21;;;;;;;17.95;7.90;;;;;;;;;;5091954;28;20085;-79
2021/03/10 02:40:49;;;;;;;26.17;9.20;;;;;;;;;;5091551;28;20039;-80
2021/03/10 02:43:15;;;;;;;23.20;7.88;;;;;;;;;;5093141;28;20024;-80
2021/03/10 02:45:43;;;;;;;28.05;9.70;;;;;;;;;;5093064;28;20055;-80
2021/03/10 02:48:10;;;;;;;26.45;8.23;;;;;;;;;;5091858;28;20035;-80
2021/03/10 02:50:37;;;;;;;28.75;9.75;;;;;;;;;;5093095;28;20046;-81
2021/03/10 02:53:04;;;;;;;26.65;8.98;;;;;;;;;;5091808;28;20538;-80
2021/03/10 02:55:32;;;;;;;20.48;8.95;;;;;;;;;;5091650;28;20084;-80
2021/03/10 02:57:59;;;;;;;19.58;7.97;;;;;;;;;;5091743;28;20036;-80
2021/03/10 03:00:25;;;;;;;23.92;8.60;;;;;;;;;;5092949;28;20089;-80
2021/03/10 03:02:52;;;;;;;21.35;7.32;;;;;;;;;;5091750;28;20480;-80
2021/03/10 03:05:19;;;;;;;14.70;6.22;;;;;;;;;;5093068;28;20070;-81
2021/03/10 03:07:46;;;;;;;15.98;6.75;;;;;;;;;;5092860;28;20074;-78
2021/03/10 03:10:17;;;;;;;21.02;9.30;;;;;;;;;;5091631;28;20035;-80
2021/03/10 03:12:44;;;;;;;23.63;7.80;;;;;;;;;;5092138;28;20404;-80
2021/03/10 03:15:14;;;;;;;19.08;7.13;;;;;;;;;;5096610;28;20484;-79
2021/03/10 03:17:40;;;;;;;20.48;7.55;;;;;;;;;;5095382;28;20024;-77
2021/03/10 03:20:07;;;;;;;23.35;6.90;;;;;;;;;;5095333;28;20020;-80
2021/03/10 03:22:34;;;;;;;30.67;9.13;;;;;;;;;;5096979;28;20396;-77
2021/03/10 03:25:00;;;;;;;23.45;7.82;;;;;;;;;;5095485;28;20031;-79
2021/03/10 03:27:27;;;;;;;22.25;8.35;;;;;;;;;;5096473;28;20032;-80
2021/03/10 03:29:55;;;;;;;23.83;8.02;;;;;;;;;;5096580;28;20027;-81
2021/03/10 03:32:23;;;;;;;16.83;6.88;;;;;;;;;;5095197;28;20028;-81
2021/03/10 03:34:49;;;;;;;22.23;8.75;;;;;;;;;;5095212;28;20504;-81
2021/03/10 03:37:15;;;;;;;28.85;8.23;;;;;;;;;;5096319;28;20034;-79
2021/03/10 03:39:42;;;;;;;18.33;7.45;;;;;;;;;;5096333;28;20039;-81
2021/03/10 03:42:08;;;;;;;19.50;8.07;;;;;;;;;;5096275;28;20056;-79
2021/03/10 03:44:34;;;;;;;20.90;6.97;;;;;;;;;;5095035;28;20032;-80
2021/03/10 03:47:01;;;;;;;23.48;7.50;;;;;;;;;;5105241;28;20028;-81
2021/03/10 03:49:27;;;;;;;19.83;7.40;;;;;;;;;;5117903;28;20063;-80
2021/03/10 03:51:54;;;;;;;23.83;7.57;;;;;;;;;;5096235;28;20028;-81
2021/03/10 03:54:20;;;;;;;25.23;7.60;;;;;;;;;;5096017;28;20032;-82
2021/03/10 03:56:46;;;;;;;23.70;7.47;;;;;;;;;;5096155;28;20027;-79
2021/03/10 03:59:12;;;;;;;20.33;7.53;;;;;;;;;;5095988;28;20031;-80
2021/03/10 04:01:39;;;;;;;18.83;6.80;;;;;;;;;;5096335;28;20039;-80
2021/03/10 04:04:05;;;;;;;15.25;7.20;;;;;;;;;;5096023;28;20024;-80
2021/03/10 04:06:32;;;;;;;14.85;6.50;;;;;;;;;;5094492;28;20030;-81
2021/03/10 04:09:10;;;;;;;17.27;6.75;;;;;;;;;;5094478;28;20396;-80
2021/03/10 04:11:36;;;;;;;19.77;7.82;;;;;;;;;;5094300;28;20059;-80
2021/03/10 04:14:03;;;;;;;18.58;7.38;;;;;;;;;;5094106;28;20032;-80
2021/03/10 04:16:29;;;;;;;22.27;6.63;;;;;;;;;;5095997;28;20031;-78
2021/03/10 04:18:56;;;;;;;16.35;7.50;;;;;;;;;;5095315;28;20032;-80
2021/03/10 04:21:22;;;;;;;11.93;5.50;;;;;;;;;;5095241;28;20024;-81
2021/03/10 04:23:48;;;;;;;16.00;7.65;;;;;;;;;;5095304;28;20024;-79
2021/03/10 04:26:15;;;;;;;17.92;7.25;;;;;;;;;;5094653;28;20056;-80
2021/03/10 04:28:41;;;;;;;13.27;4.60;;;;;;;;;;5095298;28;20388;-79
2021/03/10 04:31:07;;;;;;;13.05;6.20;;;;;;;;;;5095566;28;20031;-79
2021/03/10 04:33:34;;;;;;;13.05;5.40;;;;;;;;;;5095614;28;20032;-79
2021/03/10 04:36:00;;;;;;;14.57;6.57;;;;;;;;;;5095077;28;20016;-79
2021/03/10 04:38:26;;;;;;;17.92;6.13;;;;;;;;;;5095098;28;20039;-79
2021/03/10 04:40:53;;;;;;;20.80;7.57;;;;;;;;;;5093519;28;20051;-80
2021/03/10 04:43:19;;;;;;;23.27;7.88;;;;;;;;;;5095166;28;20468;-79
2021/03/10 04:45:45;;;;;;;19.73;8.10;;;;;;;;;;5095070;28;20048;-77
2021/03/10 04:48:11;;;;;;;15.38;6.95;;;;;;;;;;5093685;28;20032;-80
2021/03/10 04:50:38;;;;;;;20.77;7.43;;;;;;;;;;5094780;28;20024;-80
2021/03/10 04:53:04;;;;;;;20.10;6.93;;;;;;;;;;5095365;28;20156;-80
2021/03/10 04:55:30;;;;;;;18.27;7.20;;;;;;;;;;5094801;28;20038;-78
2021/03/10 04:57:57;;;;;;;17.30;7.22;;;;;;;;;;5093501;28;20035;-80
2021/03/10 05:00:23;;;;;;;12.70;6.32;;;;;;;;;;5095204;28;20042;-79
2021/03/10 05:02:50;;;;;;;17.15;6.53;;;;;;;;;;5093373;28;20487;-79
2021/03/10 05:05:16;;;;;;;15.65;7.38;;;;;;;;;;5095291;28;20427;-79
2021/03/10 05:07:43;;;;;;;19.15;6.45;;;;;;;;;;5094655;28;20024;-79
2021/03/10 05:10:09;;;;;;;17.52;6.78;;;;;;;;;;5093242;28;20043;-80
2021/03/10 05:12:36;;;;;;;17.23;5.95;;;;;;;;;;5092968;28;20035;-79
2021/03/10 05:15:03;;;;;;;18.58;6.30;;;;;;;;;;5094737;28;20032;-79
2021/03/10 05:17:29;;;;;;;22.02;7.43;;;;;;;;;;5093458;28;20425;-81
2021/03/10 05:19:58;;;;;;;19.50;7.68;;;;;;;;;;5095139;28;20027;-79
2021/03/10 05:22:25;;;;;;;17.00;6.45;;;;;;;;;;5093624;28;20111;-79
2021/03/10 05:24:51;;;;;;;16.33;6.55;;;;;;;;;;5092957;28;20357;-80
2021/03/10 05:27:17;;;;;;;13.93;5.75;;;;;;;;;;5094319;28;20032;-82
2021/03/10 05:29:43;;;;;;;24.35;6.65;;;;;;;;;;5093520;28;20034;-78
2021/03/10 05:32:10;;;;;;;15.50;6.22;;;;;;;;;;5093683;28;20075;-79
2021/03/10 05:34:37;;;;;;;14.30;6.43;;;;;;;;;;5094486;28;20036;-79
2021/03/10 05:37:03;;;;;;;16.85;7.38;;;;;;;;;;5093277;28;20020;-80
2021/03/10 05:39:30;;;;;;;16.00;7.20;;;;;;;;;;5093826;28;20035;-80
2021/03/10 05:41:56;;;;;;;16.83;6.32;;;;;;;;;;5112555;28;20024;-79
2021/03/10 05:44:23;;;;;;;22.02;7.10;;;;;;;;;;5105349;28;20039;-80
2021/03/10 05:46:49;;;;;;;22.38;5.78;;;;;;;;;;5092911;28;20112;-79
2021/03/10 05:49:15;;;;;;;21.08;6.97;;;;;;;;;;5093358;28;20038;-79
2021/03/10 05:51:42;;;;;;;19.08;7.28;;;;;;;;;;5093379;28;20028;-78
2021/03/10 05:54:08;;;;;;;22.35;7.65;;;;;;;;;;5093665;28;20039;-80
2021/03/10 05:56:34;;;;;;;25.98;7.65;;;;;;;;;;5094189;28;20055;-86
2021/03/10 05:59:02;;;;;;;20.20;7.10;;;;;;;;;;5093082;28;20038;-82
2021/03/10 06:01:28;;;;;;;22.38;8.00;;;;;;;;;;5102137;28;20078;-84
2021/03/10 06:03:55;;;;;;;16.42;7.18;;;;;;;;;;5073961;28;20052;-82
2021/03/10 06:06:21;;;;;;;19.45;8.02;;;;;;;;;;5073661;28;20056;-79
2021/03/10 06:08:47;;;;;;;22.88;7.30;;;;;;;;;;5073445;28;20031;-86
2021/03/10 06:11:26;;;;;;;20.35;7.03;;;;;;;;;;5076958;28;20107;-85
2021/03/10 06:13:55;;;;;;;17.20;6.95;;;;;;;;;;5084094;28;20037;-87
2021/03/10 06:16:25;;;;;;;23.33;7.63;;;;;;;;;;5080504;28;20052;-87
2021/03/10 06:19:01;;;;;;;17.75;6.95;;;;;;;;;;5081956;28;20025;-92
2021/03/10 06:21:27;;;;;;;20.27;7.90;;;;;;;;;;5076841;28;20033;-91
2021/03/10 06:23:55;;;;;;;16.80;7.40;;;;;;;;;;5077752;28;20198;-86
2021/03/10 06:26:22;;;;;;;21.05;8.43;;;;;;;;;;5081252;28;20389;-91
2021/03/10 06:28:48;;;;;;;18.73;7.65;;;;;;;;;;5106123;28;20617;-90
2021/03/10 06:31:18;;;;;;;24.52;10.55;;;;;;;;;;5111916;28;20031;-90
2021/03/10 06:33:45;;;;;;;24.63;11.35;;;;;;;;;;5099598;28;20033;-90
2021/03/10 06:36:11;;;;;;;28.77;10.80;;;;;;;;;;5098057;28;20021;-88
2021/03/10 06:38:37;;;;;;;19.90;9.52;;;;;;;;;;5100025;28;20054;-93
2021/03/10 06:41:03;;;;;;;21.30;9.63;;;;;;;;;;5099023;28;20036;-91
2021/03/10 06:43:37;;;;;;;23.23;9.55;;;;;;;;;;5097084;28;20071;-87
2021/03/10 06:46:16;;;;;;;26.58;9.55;;;;;;;;;;5098559;28;20178;-87
2021/03/10 06:48:52;;;;;;;22.35;9.73;;;;;;;;;;5097157;28;20088;-83
2021/03/10 06:51:19;;;;;;;21.52;9.77;;;;;;;;;;5105050;28;20035;-89
2021/03/10 06:53:45;;;;;;;27.95;11.00;;;;;;;;;;5099505;28;20118;-88
2021/03/10 06:56:18;;;;;;;22.25;10.35;;;;;;;;;;5102890;28;20026;-92
2021/03/10 06:58:54;;;;;;;26.60;10.75;;;;;;;;;;5111114;28;20020;-92
2021/03/10 07:01:21;;;;;;;30.90;10.30;;;;;;;;;;5108122;28;20038;-92
2021/03/10 07:03:49;;;;;;;21.05;9.85;;;;;;;;;;5107555;28;20476;-93
2021/03/10 07:06:16;;;;;;;23.38;10.57;;;;;;;;;;5107048;28;20020;-91
2021/03/10 07:08:43;;;;;;;18.85;10.20;;;;;;;;;;5106482;28;20032;-94
2021/03/10 07:11:10;;;;;;;25.30;10.10;;;;;;;;;;5088459;28;20046;-92
2021/03/10 07:13:36;;;;;;;24.08;10.95;;;;;;;;;;5105674;28;20091;-90
2021/03/10 07:16:03;;;;;;;24.45;10.05;;;;;;;;;;5104205;28;20039;-92
2021/03/10 07:18:30;;;;;;;26.42;9.45;;;;;;;;;;5104709;28;20020;-91
2021/03/10 07:20:58;;;;;;;20.88;10.10;;;;;;;;;;5101184;28;20024;-90
2021/03/10 07:23:25;;;;;;;23.08;12.73;;;;;;;;;;5102962;28;20052;-92
2021/03/10 07:25:52;;;;;;;20.30;11.27;;;;;;;;;;5106905;28;20027;-93
2021/03/10 07:28:20;;;;;;;16.50;8.75;;;;;;;;;;5106869;28;20056;-94
2021/03/10 07:30:48;;;;;;;20.27;9.35;;;;;;;;;;5100765;28;20043;-92
2021/03/10 07:33:15;;;;;;;14.65;7.85;;;;;;;;;;5082746;28;20085;-92
2021/03/10 07:35:52;;;;;;;19.73;8.07;;;;;;;;;;5100259;28;20029;-93
2021/03/10 07:38:23;;;;;;;13.52;8.05;;;;;;;;;;5121102;28;20012;-87
2021/03/10 07:41:00;;;;;;;15.57;8.80;;;;;;;;;;5117515;28;20435;-93
2021/03/10 07:43:35;;;;;;;21.88;10.10;;;;;;;;;;5103229;28;20036;-92
2021/03/10 07:46:01;;;;;;;20.98;9.07;;;;;;;;;;5099602;28;20028;-92
2021/03/10 07:48:32;;;;;;;19.25;9.70;;;;;;;;;;5099400;28;20051;-90
2021/03/10 07:50:58;;;;;;;21.70;9.30;;;;;;;;;;5098405;28;20058;-92
2021/03/10 07:53:34;;;;;;;20.27;8.93;;;;;;;;;;5100208;28;20059;-92
2021/03/10 07:56:00;;;;;;;19.52;8.52;;;;;;;;;;5103511;28;20031;-91
2021/03/10 07:58:27;;;;;;;15.00;7.38;;;;;;;;;;5100068;28;20035;-92
2021/03/10 08:00:53;;;;;;;15.32;7.28;;;;;;;;;;5097881;28;20028;-93
2021/03/10 08:03:33;;;;;;;17.73;7.10;;;;;;;;;;5101974;28;20024;-93
2021/03/10 08:05:59;;;;;;;15.25;6.75;;;;;;;;;;5100391;28;20032;-93
2021/03/10 08:08:33;;;;;;;11.38;6.13;;;;;;;;;;5102590;28;20032;-94
2021/03/10 08:11:19;;;;;;;14.05;6.93;;;;;;;;;;5100789;28;20028;-93
2021/03/10 08:13:47;;;;;;;13.73;6.72;;;;;;;;;;5100727;28;20122;-93
2021/03/10 08:16:15;;;;;;;15.02;7.38;;;;;;;;;;5104072;28;20020;-94
2021/03/10 08:18:47;;;;;;;17.35;7.50;;;;;;;;;;5111048;28;20042;-93
2021/03/10 08:21:19;;;;;;;11.65;6.30;;;;;;;;;;5110201;28;20023;-93
2021/03/10 08:23:45;;;;;;;9.27;5.35;;;;;;;;;;5105128;28;20393;-95
2021/03/10 08:26:11;;;;;;;11.20;6.10;;;;;;;;;;5098848;28;20055;-94
2021/03/10 08:28:39;;;;;;;11.02;6.10;;;;;;;;;;5100061;28;20122;-92
2021/03/10 08:31:09;;;;;;;12.02;5.60;;;;;;;;;;5098536;28;20024;-92
2021/03/10 08:33:52;;;;;;;11.13;6.15;;;;;;;;;;5101071;28;20040;-92
2021/03/10 08:36:18;;;;;;;10.55;5.93;;;;;;;;;;5096922;28;20495;-93
2021/03/10 08:38:45;;;;;;;12.45;6.07;;;;;;;;;;5099318;28;20552;-94
2021/03/10 08:41:11;;;;;;;13.05;6.18;;;;;;;;;;5099740;28;20088;-92
2021/03/10 08:43:37;;;;;;;10.73;5.70;;;;;;;;;;5100430;28;20123;-93
2021/03/10 08:46:04;;;;;;;10.73;5.80;;;;;;;;;;5102096;28;20070;-92
2021/03/10 08:48:34;;;;;;;15.77;5.95;;;;;;;;;;5105524;28;20099;-91
2021/03/10 08:51:05;;;;;;;11.55;6.10;;;;;;;;;;5103883;28;20418;-92
2021/03/10 08:53:31;;;;;;;11.82;6.25;;;;;;;;;;5106767;28;20054;-92
2021/03/10 08:56:08;;;;;;;10.32;6.03;;;;;;;;;;5105951;28;20044;-91
2021/03/10 08:58:36;;;;;;;11.85;6.30;;;;;;;;;;5104950;28;20031;-93
2021/03/10 09:01:12;;;;;;;11.88;6.90;;;;;;;;;;5107096;28;20035;-94
2021/03/10 09:03:42;;;;;;;14.15;6.88;;;;;;;;;;5089609;28;20039;-93
2021/03/10 09:06:09;;;;;;;10.95;6.28;;;;;;;;;;5103372;28;20036;-94
2021/03/10 09:08:35;;;;;;;12.85;6.63;;;;;;;;;;5100651;28;20024;-90
2021/03/10 09:11:01;;;;;;;9.95;5.95;;;;;;;;;;5106317;28;20024;-94
2021/03/10 09:13:28;;;;;;;11.75;6.72;;;;;;;;;;5105940;28;20040;-94
2021/03/10 09:15:56;;;;;;;12.10;6.18;;;;;;;;;;5105051;28;20082;-94
2021/03/10 09:18:37;;;;;;;12.95;7.07;;;;;;;;;;5105485;28;20020;-93
2021/03/10 09:21:03;;;;;;;11.02;6.30;;;;;;;;;;5089979;28;20028;-95
2021/03/10 09:23:31;;;;;;;15.13;7.00;;;;;;;;;;5104596;28;20070;-94
2021/03/10 09:25:58;;;;;;;11.18;6.68;;;;;;;;;;5102413;28;20054;-94
2021/03/10 09:28:33;;;;;;;12.93;6.63;;;;;;;;;;5105793;28;20020;-93
2021/03/10 09:31:00;;;;;;;11.13;6.35;;;;;;;;;;5106945;28;20024;-92
2021/03/10 09:33:30;;;;;;;10.80;5.72;;;;;;;;;;5112331;28;20032;-88
2021/03/10 09:35:58;;;;;;;9.02;6.53;;;;;;;;;;5118564;28;20028;-93
2021/03/10 09:38:31;;;;;;;9.93;6.35;;;;;;;;;;5114236;28;20038;-94
2021/03/10 09:40:59;;;;;;;13.63;6.45;;;;;;;;;;5103610;28;20052;-91
2021/03/10 09:43:27;;;;;;;11.98;7.18;;;;;;;;;;5101925;28;20062;-92
2021/03/10 09:46:01;;;;;;;13.60;6.40;;;;;;;;;;5099799;28;20483;-92
2021/03/10 09:48:29;;;;;;;11.05;6.40;;;;;;;;;;5104659;28;20024;-93
2021/03/10 09:51:03;;;;;;;10.38;6.40;;;;;;;;;;5102008;28;20112;-92
2021/03/10 09:53:29;;;;;;;9.93;6.00;;;;;;;;;;5098737;28;20093;-92
2021/03/10 09:56:28;;;;;;;10.48;6.30;;;;;;;;;;5099747;28;20528;-92
2021/03/10 09:58:56;;;;;;;11.68;6.35;;;;;;;;;;5055092;28;20040;-93
2021/03/10 10:01:23;;;;;;;11.38;6.80;;;;;;;;;;5100153;28;20024;-94
2021/03/10 10:03:49;;;;;;;10.48;6.22;;;;;;;;;;5102772;28;20031;-93
2021/03/10 10:06:17;;;;;;;10.43;6.75;;;;;;;;;;5104352;28;20100;-95
2021/03/10 10:08:45;;;;;;;10.88;6.40;;;;;;;;;;5101158;28;20066;-95
2021/03/10 10:11:14;;;;;;;11.63;6.97;;;;;;;;;;5102858;28;20068;-94
2021/03/10 10:13:42;;;;;;;14.07;6.80;;;;;;;;;;5104003;28;20099;-95
2021/03/10 10:16:09;;;;;;;9.73;6.28;;;;;;;;;;5082453;28;20254;-90
2021/03/10 10:18:36;;;;;;;8.73;5.70;;;;;;;;;;5102497;28;20031;-93
2021/03/10 10:21:03;;;;;;;13.77;7.03;;;;;;;;;;5101125;28;20115;-93
2021/03/10 10:23:29;;;;;;;10.32;6.57;;;;;;;;;;5102177;28;20028;-90
2021/03/10 10:25:55;;;;;;;9.75;6.10;;;;;;;;;;5106500;28;20028;-92
2021/03/10 10:28:22;;;;;;;11.18;6.63;;;;;;;;;;5105137;28;20021;-93
2021/03/10 10:30:48;;;;;;;31.63;7.90;;;;;;;;;;5103168;28;20423;-92
2021/03/10 10:33:14;;;;;;;15.00;6.93;;;;;;;;;;5104043;28;20077;-93
2021/03/10 10:35:41;;;;;;;14.50;6.78;;;;;;;;;;5114178;28;20028;-91
2021/03/10 10:38:08;;;;;;;12.20;6.88;;;;;;;;;;5120611;28;20476;-93
2021/03/10 10:40:34;;;;;;;11.48;6.50;;;;;;;;;;5115802;28;20020;-86
2021/03/10 10:43:00;;;;;;;13.75;6.45;;;;;;;;;;5102047;28;20120;-92
2021/03/10 10:45:27;;;;;;;11.52;6.57;;;;;;;;;;5102123;28;20028;-91
2021/03/10 10:47:53;;;;;;;12.40;6.43;;;;;;;;;;5105969;28;20024;-93
2021/03/10 10:50:19;;;;;;;12.85;6.63;;;;;;;;;;5105700;28;20479;-94
2021/03/10 10:52:47;;;;;;;12.98;6.82;;;;;;;;;;5104526;28;20026;-93
2021/03/10 10:55:17;;;;;;;10.43;6.50;;;;;;;;;;5106120;28;20039;-87
2021/03/10 10:57:43;;;;;;;10.57;6.70;;;;;;;;;;5101654;28;20376;-90
2021/03/10 11:00:10;;;;;;;11.15;6.13;;;;;;;;;;5100543;28;20024;-88
2021/03/10 11:02:37;;;;;;;12.65;6.88;;;;;;;;;;5102528;28;20031;-91
2021/03/10 11:05:03;;;;;;;14.23;6.93;;;;;;;;;;5103841;28;20071;-92
2021/03/10 11:07:30;;;;;;;12.82;6.47;;;;;;;;;;5110909;28;20031;-90
2021/03/10 11:10:00;;;;;;;11.02;6.53;;;;;;;;;;5112591;28;20032;-91
2021/03/10 11:12:26;;;;;;;11.15;6.13;;;;;;;;;;5113109;28;20012;-93
2021/03/10 11:14:53;;;;;;;14.57;6.65;;;;;;;;;;5112062;28;20056;-94
2021/03/10 11:17:20;;;;;;;11.10;6.05;;;;;;;;;;5112856;28;20016;-91
2021/03/10 11:19:46;;;;;;;14.35;6.30;;;;;;;;;;5112306;28;20032;-93
2021/03/10 11:22:13;;;;;;;14.77;6.88;;;;;;;;;;5111354;28;20024;-93
2021/03/10 11:24:50;;;;;;;15.68;7.15;;;;;;;;;;5107986;28;20036;-93
2021/03/10 11:27:20;;;;;;;13.93;6.72;;;;;;;;;;5102247;28;20039;-93
2021/03/10 11:29:47;;;;;;;11.98;6.20;;;;;;;;;;5117233;28;20016;-93
2021/03/10 11:32:15;;;;;;;11.95;5.88;;;;;;;;;;5114168;28;20063;-87
2021/03/10 11:34:42;;;;;;;13.07;5.97;;;;;;;;;;5107105;28;20028;-91
2021/03/10 11:37:08;;;;;;;12.23;5.85;;;;;;;;;;5099462;28;20070;-91
2021/03/10 11:39:35;;;;;;;13.65;6.10;;;;;;;;;;5098038;28;20429;-89
2021/03/10 11:42:01;;;;;;;12.20;5.88;;;;;;;;;;5098759;28;20044;-91
2021/03/10 11:44:27;;;;;;;18.63;7.03;;;;;;;;;;5098863;28;20400;-88
2021/03/10 11:46:54;;;;;;;17.95;6.60;;;;;;;;;;5098525;28;20028;-88
2021/03/10 11:49:20;;;;;;;12.77;6.55;;;;;;;;;;5099053;28;20070;-89
2021/03/10 11:51:46;;;;;;;13.70;6.22;;;;;;;;;;5099484;28;20077;-90
2021/03/10 11:54:13;;;;;;;13.32;6.30;;;;;;;;;;5100284;28;20036;-91
2021/03/10 11:56:39;;;;;;;12.95;6.32;;;;;;;;;;5096758;28;20031;-88
2021/03/10 11:59:09;;;;;;;13.75;6.55;;;;;;;;;;5095060;28;20035;-84
2021/03/10 12:01:35;;;;;;;17.15;5.93;;;;;;;;;;5151536;22;20041;-82
2021/03/10 12:04:01;;;;;;;12.98;5.70;;;;;;;;;;5053780;28;20037;-83
2021/03/10 12:06:27;;;;;;;16.55;7.07;;;;;;;;;;5036417;28;20501;-85
2021/03/10 12:08:54;;;;;;;17.92;6.53;;;;;;;;;;5034580;28;20145;-83
2021/03/10 12:11:20;;;;;;;13.07;5.55;;;;;;;;;;5035019;28;20052;-84
2021/03/10 12:13:46;;;;;;;11.57;5.45;;;;;;;;;;5034708;28;20034;-83
2021/03/10 12:16:15;;;;;;;10.35;5.38;;;;;;;;;;5035920;28;20104;-82
2021/03/10 12:18:41;;;;;;;10.50;4.55;;;;;;;;;;5035722;28;20102;-81
2021/03/10 12:21:07;;;;;;;10.55;4.65;;;;;;;;;;5035999;28;20033;-82
2021/03/10 12:23:34;;;;;;;12.13;5.10;;;;;;;;;;5034102;28;20080;-85
2021/03/10 12:26:00;;;;;;;13.10;4.55;;;;;;;;;;5034676;28;20079;-82
2021/03/10 12:28:26;;;;;;;9.90;4.75;;;;;;;;;;5034265;28;20017;-82
2021/03/10 12:30:53;;;;;;;10.02;4.35;;;;;;;;;;5035387;28;20108;-82
2021/03/10 12:33:19;;;;;;;12.05;4.80;;;;;;;;;;5034110;28;20026;-86
2021/03/10 12:35:45;;;;;;;9.18;4.55;;;;;;;;;;5035604;28;20060;-83
2021/03/10 12:38:11;;;;;;;13.60;5.45;;;;;;;;;;5034257;28;20021;-84
2021/03/10 12:40:37;;;;;;;11.48;5.03;;;;;;;;;;5033923;28;20033;-83
2021/03/10 12:43:03;;;;;;;10.23;5.00;;;;;;;;;;5034466;28;20167;-83
2021/03/10 12:45:29;;;;;;;11.32;5.18;;;;;;;;;;5034921;28;20045;-85
2021/03/10 12:47:56;;;;;;;11.35;4.68;;;;;;;;;;5034638;28;20032;-82
2021/03/10 12:50:22;;;;;;;10.52;4.55;;;;;;;;;;5038766;28;20028;-83
2021/03/10 12:52:48;;;;;;;10.60;4.10;;;;;;;;;;5052332;28;20056;-83
2021/03/10 12:55:14;;;;;;;10.57;5.35;;;;;;;;;;5035377;28;20100;-83
2021/03/10 12:57:40;;;;;;;10.05;5.18;;;;;;;;;;5033862;28;20025;-83
2021/03/10 13:00:09;;;;;;;10.35;5.05;;;;;;;;;;5034232;28;20414;-81
2021/03/10 13:02:36;;;;;;;11.98;5.38;;;;;;;;;;5034647;28;20081;-83
2021/03/10 13:05:02;;;;;;;19.13;6.57;;;;;;;;;;5033369;28;20124;-84
2021/03/10 13:07:29;;;;;;;14.80;5.65;;;;;;;;;;5034702;28;20053;-84
2021/03/10 13:09:55;;;;;;;13.27;4.13;;;;;;;;;;5033569;28;20029;-85
2021/03/10 13:12:21;;;;;;;10.45;4.85;;;;;;;;;;5033238;28;20048;-84
2021/03/10 13:14:47;;;;;;;7.95;4.28;;;;;;;;;;5033227;28;20130;-84
2021/03/10 13:17:14;;;;;;;10.68;4.53;;;;;;;;;;5033234;28;20500;-85
2021/03/10 13:19:40;;;;;;;9.27;5.00;;;;;;;;;;5033017;28;20028;-83
2021/03/10 13:22:06;;;;;;;11.25;5.32;;;;;;;;;;5034752;28;20024;-84
2021/03/10 13:24:32;;;;;;;14.18;5.70;;;;;;;;;;5032954;28;20029;-85
2021/03/10 13:26:58;;;;;;;13.18;5.22;;;;;;;;;;5032863;28;20021;-84
2021/03/10 13:29:24;;;;;;;11.43;5.25;;;;;;;;;;5033101;28;20025;-83
2021/03/10 13:31:52;;;;;;;12.02;5.32;;;;;;;;;;5033022;28;20025;-83
2021/03/10 13:34:20;;;;;;;14.23;5.72;;;;;;;;;;5033006;28;20128;-83
2021/03/10 13:36:46;;;;;;;10.40;4.82;;;;;;;;;;5033719;28;20052;-84
2021/03/10 13:39:12;;;;;;;10.63;5.07;;;;;;;;;;5033074;28;20030;-83
2021/03/10 13:41:40;;;;;;;10.57;5.80;;;;;;;;;;5032736;28;20037;-83
2021/03/10 13:44:06;;;;;;;15.23;5.53;;;;;;;;;;5032693;28;20091;-83
2021/03/10 13:46:33;;;;;;;15.73;6.85;;;;;;;;;;5032479;28;20485;-83
2021/03/10 13:48:59;;;;;;;14.77;5.68;;;;;;;;;;5032484;28;20071;-82
2021/03/10 13:51:25;;;;;;;14.85;6.05;;;;;;;;;;5034746;28;20101;-83
2021/03/10 13:53:51;;;;;;;16.52;6.28;;;;;;;;;;5036439;28;20037;-89
2021/03/10 13:56:18;;;;;;;18.25;7.13;;;;;;;;;;5033795;28;20026;-90
2021/03/10 13:58:44;;;;;;;15.85;7.20;;;;;;;;;;5031807;28;20034;-85
2021/03/10 14:01:10;;;;;;;13.93;7.30;;;;;;;;;;5032765;28;20041;-83
2021/03/10 14:03:36;;;;;;;13.50;6.60;;;;;;;;;;5032538;28;20021;-83
2021/03/10 14:06:02;;;;;;;15.18;7.32;;;;;;;;;;5032587;28;20474;-82
2021/03/10 14:08:28;;;;;;;17.10;7.05;;;;;;;;;;5032400;28;20033;-85
2021/03/10 14:10:56;;;;;;;13.05;5.50;;;;;;;;;;5032675;28;20080;-84
2021/03/10 14:13:22;;;;;;;19.38;6.28;;;;;;;;;;5032440;28;20053;-86
2021/03/10 14:15:48;;;;;;;11.40;5.18;;;;;;;;;;5032631;28;20414;-87
2021/03/10 14:18:14;;;;;;;14.75;6.25;;;;;;;;;;5033270;28;20044;-87
2021/03/10 14:20:40;;;;;;;14.60;6.50;;;;;;;;;;5032471;28;20034;-87
2021/03/10 14:23:10;;;;;;;16.27;6.88;;;;;;;;;;5033410;28;20021;-88
2021/03/10 14:30:51;;;;;;;12.25;6.82;;;;;;;;;;5313283;22;20056;-83
2021/03/10 14:33:19;;;;;;;15.05;6.50;;;;;;;;;;5073992;28;20086;-84
2021/03/10 14:35:52;;;;;;;11.73;6.30;;;;;;;;;;5075293;28;20021;-85